PWSweather.com
Personal Weather Stations
Station Observations
ISYDDANM23
Felsted, AabenraaDK 6200

FelstedAabenraaDK 6200

Lat: 54.977066, Lon: 9.507192

Elevation: 135

Station Type: Davis Vantage Pro 2 Plus 24H

http://www.valkaer.dk

Latest ConditionsUpdated 4:00:01 AM GMT+01:01 Tuesday, Mar 26, 2019
Currently Today's Max Today's Min Today's Average
Temperature 40.2°F4.6°C 40.3°F4.6°C 37.1°F2.8°C 38.2°F3.4°C
Dew Point 36.3°F2.4°C 36.5°F2.5°C 33.4°F0.8°C 34.5°F1.4°C
Winds 8.1 mph W13.0 kmh W 11.5 mph -18.5 kmh - - 8.0 mph 12.9 kmh
Wind Gusts 11.5 mph18.5 kmh 17.3 mph27.8 kmh - -
Humidity 86% 88% 85% 87%
Pressure 30.20 in1022.7 mb 30.24 in1024.0 mb 30.20 in1022.7 mb -
Hour Temp Dew Point Humidity Winds Wind Gusts Pressure Precip Precip Rate Daily Precip Total
04:00 AM 40.2°F4.6°C 36.3°F2.4°C 86% 8.1 mph W13.0 kmh W 11.5 mph18.5 kmh 30.20 in1022.7 mb - 0.00 in0.0 mm 0.00 in0.0 mm
03:55 AM 40.3°F4.6°C 36.5°F2.5°C 86% 8.1 mph NW13.0 kmh NW 12.7 mph20.4 kmh 30.21 in1023.0 mb - 0.00 in0.0 mm 0.00 in0.0 mm
03:50 AM 40.2°F4.6°C 36.3°F2.4°C 86% 6.9 mph W11.1 kmh W 8.1 mph13.0 kmh 30.20 in1022.7 mb - 0.00 in0.0 mm 0.00 in0.0 mm
03:45 AM 40.1°F4.5°C 36.2°F2.3°C 86% 8.1 mph WNW13.0 kmh WNW 11.5 mph18.5 kmh 30.21 in1023.0 mb - 0.00 in0.0 mm 0.00 in0.0 mm
03:40 AM 40.0°F4.4°C 36.1°F2.3°C 86% 6.9 mph WNW11.1 kmh WNW 9.2 mph14.8 kmh 30.21 in1023.0 mb - 0.00 in0.0 mm 0.00 in0.0 mm
03:35 AM 39.8°F4.3°C 36.0°F2.2°C 86% 8.1 mph W13.0 kmh W 9.2 mph14.8 kmh 30.21 in1023.0 mb - 0.00 in0.0 mm 0.00 in0.0 mm
03:30 AM 39.6°F4.2°C 36.1°F2.3°C 87% 9.2 mph WNW14.8 kmh WNW 10.4 mph16.7 kmh 30.21 in1023.0 mb - 0.00 in0.0 mm 0.00 in0.0 mm
03:25 AM 39.4°F4.1°C 35.9°F2.2°C 87% 11.5 mph WNW18.5 kmh WNW 15.0 mph24.1 kmh 30.21 in1023.0 mb - 0.00 in0.0 mm 0.00 in0.0 mm
03:20 AM 39.0°F3.9°C 35.5°F1.9°C 87% 11.5 mph WNW18.5 kmh WNW 17.3 mph27.8 kmh 30.21 in1023.0 mb - 0.00 in0.0 mm 0.00 in0.0 mm
03:15 AM 38.6°F3.7°C 35.4°F1.9°C 88% 10.4 mph W16.7 kmh W 12.7 mph20.4 kmh 30.21 in1023.0 mb - 0.00 in0.0 mm 0.00 in0.0 mm
03:10 AM 38.5°F3.6°C 35.0°F1.7°C 87% 8.1 mph W13.0 kmh W 10.4 mph16.7 kmh 30.22 in1023.4 mb - 0.00 in0.0 mm 0.00 in0.0 mm
03:00 AM 38.1°F3.4°C 34.6°F1.4°C 87% 6.9 mph W11.1 kmh W 10.4 mph16.7 kmh 30.22 in1023.4 mb - 0.00 in0.0 mm 0.00 in0.0 mm
02:55 AM 38.1°F3.4°C 34.9°F1.6°C 88% 5.8 mph W9.3 kmh W 9.2 mph14.8 kmh 30.22 in1023.4 mb - 0.00 in0.0 mm 0.00 in0.0 mm
02:50 AM 37.8°F3.2°C 34.3°F1.3°C 87% 6.9 mph WNW11.1 kmh WNW 11.5 mph18.5 kmh 30.22 in1023.4 mb - 0.00 in0.0 mm 0.00 in0.0 mm
02:45 AM 37.8°F3.2°C 34.3°F1.3°C 87% 8.1 mph W13.0 kmh W 11.5 mph18.5 kmh 30.22 in1023.4 mb - 0.00 in0.0 mm 0.00 in0.0 mm
02:40 AM 37.8°F3.2°C 34.5°F1.4°C 88% 9.2 mph WNW14.8 kmh WNW 12.7 mph20.4 kmh 30.22 in1023.4 mb - 0.00 in0.0 mm 0.00 in0.0 mm
02:35 AM 37.6°F3.1°C 34.4°F1.3°C 88% 8.1 mph W13.0 kmh W 9.2 mph14.8 kmh 30.22 in1023.4 mb - 0.00 in0.0 mm 0.00 in0.0 mm
02:30 AM 37.5°F3.1°C 34.2°F1.2°C 88% 8.1 mph W13.0 kmh W 10.4 mph16.7 kmh 30.22 in1023.4 mb - 0.00 in0.0 mm 0.00 in0.0 mm
02:25 AM 37.4°F3.0°C 34.2°F1.2°C 88% 6.9 mph W11.1 kmh W 11.5 mph18.5 kmh 30.22 in1023.4 mb - 0.00 in0.0 mm 0.00 in0.0 mm
02:20 AM 37.4°F3.0°C 34.1°F1.2°C 88% 6.9 mph W11.1 kmh W 9.2 mph14.8 kmh 30.22 in1023.4 mb - 0.00 in0.0 mm 0.00 in0.0 mm
02:15 AM 37.4°F3.0°C 34.2°F1.2°C 88% 5.8 mph W9.3 kmh W 9.2 mph14.8 kmh 30.22 in1023.4 mb - 0.00 in0.0 mm 0.00 in0.0 mm
02:10 AM 37.5°F3.1°C 34.0°F1.1°C 87% 6.9 mph W11.1 kmh W 8.1 mph13.0 kmh 30.22 in1023.4 mb - 0.00 in0.0 mm 0.00 in0.0 mm
02:00 AM 37.6°F3.1°C 34.4°F1.3°C 88% 8.1 mph W13.0 kmh W 11.5 mph18.5 kmh 30.23 in1023.7 mb - 0.00 in0.0 mm 0.00 in0.0 mm
01:55 AM 37.5°F3.1°C 34.2°F1.2°C 88% 6.9 mph W11.1 kmh W 10.4 mph16.7 kmh 30.23 in1023.7 mb - 0.00 in0.0 mm 0.00 in0.0 mm
01:50 AM 37.4°F3.0°C 34.2°F1.2°C 88% 8.1 mph W13.0 kmh W 11.5 mph18.5 kmh 30.23 in1023.7 mb - 0.00 in0.0 mm 0.00 in0.0 mm
01:45 AM 37.2°F2.9°C 33.7°F0.9°C 87% 6.9 mph W11.1 kmh W 9.2 mph14.8 kmh 30.23 in1023.7 mb - 0.00 in0.0 mm 0.00 in0.0 mm
01:40 AM 37.1°F2.8°C 33.6°F0.9°C 87% 8.1 mph W13.0 kmh W 11.5 mph18.5 kmh 30.23 in1023.7 mb - 0.00 in0.0 mm 0.00 in0.0 mm
01:35 AM 37.1°F2.8°C 33.6°F0.9°C 87% 8.1 mph W13.0 kmh W 10.4 mph16.7 kmh 30.23 in1023.7 mb - 0.00 in0.0 mm 0.00 in0.0 mm
01:30 AM 37.2°F2.9°C 33.4°F0.8°C 86% 6.9 mph W11.1 kmh W 10.4 mph16.7 kmh 30.23 in1023.7 mb - 0.00 in0.0 mm 0.00 in0.0 mm
01:25 AM 37.2°F2.9°C 33.4°F0.8°C 86% 6.9 mph W11.1 kmh W 8.1 mph13.0 kmh 30.23 in1023.7 mb - 0.00 in0.0 mm 0.00 in0.0 mm
01:20 AM 37.3°F2.9°C 33.5°F0.8°C 86% 6.9 mph W11.1 kmh W 8.1 mph13.0 kmh 30.23 in1023.7 mb - 0.00 in0.0 mm 0.00 in0.0 mm
01:15 AM 37.4°F3.0°C 33.6°F0.9°C 86% 6.9 mph W11.1 kmh W 9.2 mph14.8 kmh 30.23 in1023.7 mb - 0.00 in0.0 mm 0.00 in0.0 mm
01:10 AM 37.3°F2.9°C 33.5°F0.8°C 86% 6.9 mph W11.1 kmh W 10.4 mph16.7 kmh 30.23 in1023.7 mb - 0.00 in0.0 mm 0.00 in0.0 mm
01:00 AM 37.5°F3.1°C 33.7°F0.9°C 86% 9.2 mph W14.8 kmh W 11.5 mph18.5 kmh 30.23 in1023.7 mb - 0.00 in0.0 mm 0.00 in0.0 mm
12:55 AM 37.8°F3.2°C 34.0°F1.1°C 86% 5.8 mph W9.3 kmh W 9.2 mph14.8 kmh 30.23 in1023.7 mb - 0.00 in0.0 mm 0.00 in0.0 mm
12:50 AM 37.9°F3.3°C 34.1°F1.2°C 86% 8.1 mph W13.0 kmh W 10.4 mph16.7 kmh 30.23 in1023.7 mb - 0.00 in0.0 mm 0.00 in0.0 mm
12:45 AM 38.0°F3.3°C 33.9°F1.1°C 85% 8.1 mph WNW13.0 kmh WNW 11.5 mph18.5 kmh 30.23 in1023.7 mb - 0.00 in0.0 mm 0.00 in0.0 mm
12:40 AM 38.0°F3.3°C 33.9°F1.1°C 85% 9.2 mph W14.8 kmh W 12.7 mph20.4 kmh 30.23 in1023.7 mb - 0.00 in0.0 mm 0.00 in0.0 mm
12:35 AM 38.1°F3.4°C 34.0°F1.1°C 85% 9.2 mph W14.8 kmh W 12.7 mph20.4 kmh 30.23 in1023.7 mb - 0.00 in0.0 mm 0.00 in0.0 mm
12:30 AM 38.1°F3.4°C 34.0°F1.1°C 85% 9.2 mph W14.8 kmh W 11.5 mph18.5 kmh 30.23 in1023.7 mb - 0.00 in0.0 mm 0.00 in0.0 mm
12:25 AM 38.2°F3.4°C 34.4°F1.3°C 86% 9.2 mph W14.8 kmh W 11.5 mph18.5 kmh 30.23 in1023.7 mb - 0.00 in0.0 mm 0.00 in0.0 mm
12:20 AM 38.2°F3.4°C 34.4°F1.3°C 86% 9.2 mph WNW14.8 kmh WNW 11.5 mph18.5 kmh 30.24 in1024.0 mb - 0.00 in0.0 mm 0.00 in0.0 mm
12:15 AM 38.4°F3.6°C 34.3°F1.3°C 85% 6.9 mph WNW11.1 kmh WNW 15.0 mph24.1 kmh 30.23 in1023.7 mb - 0.00 in0.0 mm 0.00 in0.0 mm
12:10 AM 38.4°F3.6°C 34.3°F1.3°C 85% 8.1 mph WNW13.0 kmh WNW 11.5 mph18.5 kmh 30.23 in1023.7 mb - 0.00 in0.0 mm 0.00 in0.0 mm
12:00 AM 38.2°F3.4°C 34.7°F1.5°C 87% 9.2 mph WNW14.8 kmh WNW 15.0 mph24.1 kmh 30.24 in1024.0 mb - 0.00 in0.0 mm 0.00 in0.0 mm